메인 페이지
METAR-TAF:

METAR-TAF

공항 :

호르헤 차베스 국제공항

리마, 페루

위도: 12-00S, 경도: 077-07W, 고도: 12m

현재 날씨관측

예보는 25분 전, 19:00시(UTC)에 발표되었습니다.
서북서5kt풍과 풍을 오가는
온도 18°C
습도 77%
기압 1012 hPa
시정 10km 이상
고도 1900ft 상공 흐림

METAR: SPJC 201900Z 30005KT 260V350 9999 OVC019 18/14 Q1012 NOSIG RMK PP000

시각: 14:25 (19:25 UTC)

예보

예보는 2 시간 25분 전, 17:00시(UTC)에 발표되었습니다.
예보 대상 시간: 20일 18시부터 21일 18시까지 (UTC)
서북서6kt
시정 10km 이상
고도 1700ft 상공 흐림
20일 2300시부터 (UTC)
남남서7kt
시정 10km 이상
고도 1400ft 상공 흐림
21일 0600시부터 (UTC)
시정: 5000m
박무
21일 1600시부터 (UTC)
8kt
시정 10km 이상
고도 2200ft 상공 구름 많음

TAF: SPJC 201700Z 2018/2118 29006KT 9999 OVC017 TX19/2019Z TN15/2111Z FM202300 20007KT 9999 OVC014 FM210600 MPO 2110/2113 5000 BR FM211600 28008KT 9999 BKN022

4,000개 이상의 공항 관측 자료 및 예보 (METAR 및 TAF 보고).

지도상에서 검색 가능한 기상관측소가 노란 점과 빨간 점으로 표시되어 있습니다.

기상관측소 명을 보려면 표시 위로 마우스를 이동하세요.

날씨 관측과 예보를 보려면 클릭하세요.

지도 변경 : 확대하려면 엑스 표시가 있는 녹색 버튼, 축소하려면 빼기 표시가 있는 녹색 버튼, 다음 페이지의 지도를 보려면 녹색 화살표를 클릭하세요.


METAR-TAF: